Grain Valley, MO (64029)

01:41 AM CDT die 30o September, anno 2016 (GMT -0500)
Rosewood Hills | | Change Station

Elev 850 ft 39.04 °N, 94.21 °W | Updated 11 seconds ago

Clear
Serena
56.2 °F
Feels Like 56.2 °F
N
0.4
Ventus Variabilis Ventus from Magis Aquilo quam Zephyrus
Gusts 1.1 mph

Hodie
High -- | Low -- °F
--% Chance of Precip.
Yesterday
High -- | Low -- °F
Precip. -- in
Pressio 30.27 in
Visibilitas 10.0 milia passuum
Clouds Serena
Frigus in quo Ros apparet 48 °F
Umor 75%
Rainfall 0.00 in
Snow Depth Not available.
7:12 AM 7:00 PM
Waning Crescent, 0% visible
METAR KLXT 300553Z AUTO 29004KT 10SM CLR 13/10 A3027 RMK AO2 SLP248 T01280100 10189 20117 402220100 58007
Pressio 30.27 in
Visibilitas 10.0 milia passuum
Clouds Serena
Frigus in quo Ros apparet 48 °F
Umor 75%
Rainfall 0.00 in
Snow Depth Not available.
7:12 AM 7:00 PM
Waning Crescent, 0% visible
METAR KLXT 300553Z AUTO 29004KT 10SM CLR 13/10 A3027 RMK AO2 SLP248 T01280100 10189 20117 402220100 58007

10-Day Weather Forecast

Almanac

Astronomy

Sep. 30, 2016 Rise Set
Actual Time
Civil Twilight
Nautical Twilight
Astronomical Twilight
Moon
Length Of Visible Light
Length of Day
Tomorrow will be .
, % of the Moon is Illuminated

Today's Extremes

State Highs State Lows

Community

WunderPhotos

Upload Photos

1,942,668 photos uploaded!

WunderBlog® & News

Nearby

Air Quality

  Air Quality AQ Index Pollutant
Not available.

Snow Depth

Station Depth Elevation

Earthquake Activity

City Distance Mag. Time & Date
Minimum magnitude displayed is 2.5.

Coastal Water Temperatures

Locus Calor

Stations

Nearby Weather Stations

Station Location Temp Frigus Venti Frigus in quo Ros apparet Umor Ventus Precip. Elev Renovata Type
                   

Watches & Warnings

There are currently no watches in effect.